Terminal Aerodrome Forecast
Issued by NWS Portland, OR

Home | Current Version | Previous Version | Text Only | Print | Product List | Glossary On
Versions: 1 2 3 4 5 6 7 8 9 10 11 12 13 14 15 16 17 18 19 20 21 22 23 24 25 26 27 28 29 30 31 32 33 34 35 36 37 38 39 40 41 42 43 44 45
000
FTUS46 KPQR 031730
TAFAST
TAF
KAST 031730Z 0318/0418 33007KT P6SM FEW005
     FM032100 32013KT P6SM SKC
     FM032300 33014G21KT P6SM SKC
     FM040300 32009KT P6SM SKC
     FM040800 29004KT P6SM OVC012=

USA.gov is the U.S. government's official web portal to all federal, state and local government web resources and services.